バンダルスリブガワン の空港の天気 - METARとTAF

ブルネイ国際空港 ( WBSB / BWN ) - ブルネイ バンダルスリブガワン
飛行場実況気象(Metar)
観測時間08/17 11:00 BNT (08/17 03:00 UTC)
風向・風速南西 2m/s
視程10km以上
天気現象
少しの雲 雲底高度 490m
全天の8割程度の雲 雲底高度 4270m
気温28℃
湿度79%
気圧1011hPa
METARWBSB 170300Z 23003KT 9999 FEW016 BKN140 28/24 Q1011 NOSIG
過去の天気等 Google飛行場航空写真 Wunderground天気予報

過去48時間のMETAR

飛行場予報(TAF)
発表時間: 8/17 06:52 BNT (8/16 22:52 UTC)
予報対象時間: 17日8時 BNT ~ 18日14時 BNT
風向・風速南南西 2m/s
視程10km以上
全天の4割程度の雲 雲底高度 430m
少しの積乱雲 雲底高度 490m
全天の8割程度の雲 雲底高度 4,270m
17日10時 BNT ~ 17日12時 BNT に一時的に
視程7,000m
天気現象弱いしゅう雨
17日12時 BNT ~ 17日14時 BNT に徐々に
風向・風速北西 5m/s
全天の4割程度の雲 雲底高度 460m
少しの積乱雲 雲底高度 490m
TAF WBSB 162252Z 1700/1806 21004KT 9999 SCT014 FEW016CB BKN140
TEMPO 1702/1704 7000 -SHRA
BECMG 1704/1706 31010KT SCT015 FEW016CB